Time;durP1;ratioP1;P1;durP2;ratioP2;P2;SDS_P1;SDS_P2;PMS_P1;PMS_P2;Temp;Humidity;BMP_temperature;BMP_pressure;BME280_temperature;BME280_humidity;BME280_pressure;Samples;Min_cycle;Max_cycle;Signal;HPM_P1;HPM_P2
2022/11/14 06:04:13;;;;;;;78.35;33.85;;;;;;;4.86;100.00;101403.91;4950905;28;21387;-74
2022/11/14 06:06:38;;;;;;;72.80;31.25;;;;;;;4.80;100.00;101401.63;4961841;28;20028;-75
2022/11/14 06:09:04;;;;;;;77.40;32.03;;;;;;;5.08;100.00;101408.47;4961715;28;20484;-75
2022/11/14 06:11:29;;;;;;;81.57;34.20;;;;;;;4.89;100.00;101394.94;5000555;23;20093;-77
2022/11/14 06:13:54;;;;;;;81.97;35.88;;;;;;;5.04;100.00;101396.41;4966293;28;20042;-77
2022/11/14 06:16:19;;;;;;;76.75;33.38;;;;;;;4.99;100.00;101404.88;4961368;28;20034;-75
2022/11/14 06:18:45;;;;;;;83.32;34.38;;;;;;;4.89;100.00;101410.75;4941264;28;20130;-74
2022/11/14 06:21:16;;;;;;;77.45;33.08;;;;;;;4.83;100.00;101407.34;4952228;28;20041;-75
2022/11/14 06:23:43;;;;;;;85.03;32.85;;;;;;;4.99;100.00;101404.06;4956149;28;20027;-75
2022/11/14 06:26:21;;;;;;;83.55;33.63;;;;;;;5.18;100.00;101400.94;4954270;28;21157;-74
2022/11/14 06:28:48;;;;;;;77.60;32.60;;;;;;;5.03;100.00;101405.84;4957768;28;20529;-74
2022/11/14 06:31:14;;;;;;;73.53;34.30;;;;;;;5.04;100.00;101407.50;4962662;28;20564;-74
2022/11/14 06:33:39;;;;;;;74.60;32.03;;;;;;;5.13;100.00;101401.94;4961157;28;20027;-77
2022/11/14 06:36:07;;;;;;;84.03;35.63;;;;;;;5.14;100.00;101408.28;4959997;28;20031;-74
2022/11/14 06:38:34;;;;;;;73.70;32.38;;;;;;;5.26;100.00;101402.91;4959787;28;20061;-74
2022/11/14 06:41:05;;;;;;;82.25;38.10;;;;;;;5.08;100.00;101400.16;4938755;28;20043;-76
2022/11/14 06:43:44;;;;;;;77.32;33.50;;;;;;;4.85;100.00;101404.25;4952841;28;20038;-78
2022/11/14 06:46:12;;;;;;;78.38;33.25;;;;;;;4.82;100.00;101393.78;4959295;28;20505;-76
2022/11/14 06:48:38;;;;;;;78.03;33.55;;;;;;;4.93;100.00;101397.84;4960243;28;20150;-76
2022/11/14 06:51:04;;;;;;;74.03;32.60;;;;;;;4.84;100.00;101402.59;4959202;28;20035;-75
2022/11/14 06:53:32;;;;;;;78.38;33.90;;;;;;;4.88;100.00;101409.94;4951922;28;20639;-76
2022/11/14 06:56:04;;;;;;;70.32;32.80;;;;;;;4.82;100.00;101410.44;4962671;28;20394;-76
2022/11/14 06:58:32;;;;;;;77.40;35.43;;;;;;;4.94;100.00;101407.81;4957422;28;20074;-76
2022/11/14 07:01:14;;;;;;;74.90;33.00;;;;;;;5.05;100.00;101408.31;4959598;28;20306;-76
2022/11/14 07:03:41;;;;;;;73.85;32.10;;;;;;;5.24;100.00;101400.44;4949799;28;20050;-76
2022/11/14 07:06:08;;;;;;;72.90;31.00;;;;;;;5.23;100.00;101403.56;4948382;28;20487;-75
2022/11/14 07:08:33;;;;;;;75.97;30.98;;;;;;;4.95;100.00;101409.44;4940961;28;21600;-75
2022/11/14 07:11:10;;;;;;;89.28;36.10;;;;;;;4.84;100.00;101413.69;4941053;28;20046;-76
2022/11/14 07:13:36;;;;;;;72.53;35.60;;;;;;;4.86;100.00;101416.97;4931652;28;20409;-75
2022/11/14 07:16:02;;;;;;;75.88;33.60;;;;;;;5.69;100.00;101421.41;4932142;28;20050;-76
2022/11/14 07:18:30;;;;;;;74.93;32.33;;;;;;;4.80;100.00;101418.25;4952234;28;20280;-76
2022/11/14 07:20:57;;;;;;;80.05;34.20;;;;;;;5.04;100.00;101413.06;4953478;28;20119;-77
2022/11/14 07:23:22;;;;;;;76.07;32.97;;;;;;;5.03;100.00;101407.81;4930067;28;20042;-76
2022/11/14 07:25:48;;;;;;;85.05;35.08;;;;;;;5.03;100.00;101403.06;4947505;28;21144;-78
2022/11/14 07:28:13;;;;;;;82.35;30.00;;;;;;;5.21;100.00;101405.84;4946006;28;20422;-77
2022/11/14 07:30:40;;;;;;;72.15;31.85;;;;;;;5.11;100.00;101406.19;4948717;28;20086;-77
2022/11/14 07:33:05;;;;;;;84.80;34.55;;;;;;;4.88;100.00;101409.13;4930790;28;20041;-77
2022/11/14 07:35:30;;;;;;;90.00;32.58;;;;;;;5.06;100.00;101409.94;4956421;28;20034;-76
2022/11/14 07:38:03;;;;;;;81.10;34.25;;;;;;;5.02;100.00;101407.00;4951366;28;20038;-76
2022/11/14 07:40:28;;;;;;;73.65;32.58;;;;;;;4.95;100.00;101403.09;4955379;28;20593;-76
2022/11/14 07:42:59;;;;;;;78.13;35.75;;;;;;;5.62;100.00;101410.81;4934640;28;20142;-76
2022/11/14 07:45:24;;;;;;;69.75;31.38;;;;;;;5.49;100.00;101401.53;4932463;28;20085;-77
2022/11/14 07:47:53;;;;;;;70.32;31.85;;;;;;;5.26;100.00;101409.25;4932877;28;20034;-75
2022/11/14 07:50:19;;;;;;;77.50;31.23;;;;;;;5.41;100.00;101405.16;4940120;28;20177;-76
2022/11/14 07:52:49;;;;;;;63.20;26.98;;;;;;;5.44;100.00;101407.28;4942853;28;20034;-75
2022/11/14 07:55:15;;;;;;;70.03;30.92;;;;;;;5.41;100.00;101407.94;4959703;28;20038;-78
2022/11/14 07:57:40;;;;;;;69.90;31.55;;;;;;;5.33;100.00;101392.09;4947496;28;20034;-77
2022/11/14 08:00:06;;;;;;;72.53;31.02;;;;;;;4.95;100.00;101398.34;4949932;28;20063;-76
2022/11/14 08:02:31;;;;;;;73.57;33.20;;;;;;;5.09;100.00;101393.44;4952132;28;20821;-75
2022/11/14 08:04:57;;;;;;;79.78;34.58;;;;;;;5.24;100.00;101400.44;4947817;28;20027;-75
2022/11/14 08:07:22;;;;;;;69.20;32.50;;;;;;;5.33;100.00;101394.88;4939980;28;20023;-76
2022/11/14 08:09:47;;;;;;;80.15;31.98;;;;;;;5.21;100.00;101383.66;4938933;28;20031;-76
2022/11/14 08:12:13;;;;;;;71.47;32.95;;;;;;;5.16;100.00;101381.84;4934998;28;20060;-76
2022/11/14 08:14:38;;;;;;;67.32;29.38;;;;;;;5.21;100.00;101383.66;4951449;28;20035;-76
2022/11/14 08:17:03;;;;;;;74.15;33.75;;;;;;;4.94;100.00;101390.38;4953752;28;20117;-76
2022/11/14 08:19:29;;;;;;;69.57;30.52;;;;;;;4.81;100.00;101375.53;4936563;28;20050;-76
2022/11/14 08:21:54;;;;;;;70.75;31.95;;;;;;;4.88;100.00;101370.28;4952928;28;20027;-76
2022/11/14 08:24:19;;;;;;;72.68;31.45;;;;;;;4.94;100.00;101371.75;4951578;28;20058;-76
2022/11/14 08:26:45;;;;;;;86.13;34.60;;;;;;;5.09;100.00;101370.44;4955554;28;20088;-76
2022/11/14 08:29:10;;;;;;;69.65;30.75;;;;;;;4.67;100.00;101365.41;4948343;28;20041;-76
2022/11/14 08:31:35;;;;;;;72.82;29.33;;;;;;;5.14;100.00;101361.13;4955360;28;20057;-75
2022/11/14 08:34:01;;;;;;;69.13;29.27;;;;;;;5.01;100.00;101368.50;4952956;28;20073;-76
2022/11/14 08:36:26;;;;;;;66.28;29.77;;;;;;;5.14;100.00;101370.25;4961052;28;20035;-76
2022/11/14 08:38:51;;;;;;;69.60;30.25;;;;;;;5.16;100.00;101364.38;4954986;28;20775;-76
2022/11/14 08:41:17;;;;;;;73.20;32.08;;;;;;;4.71;100.00;101365.56;4948630;28;20398;-76
2022/11/14 08:43:42;;;;;;;65.22;28.17;;;;;;;4.86;100.00;101372.56;4953396;28;20035;-75
2022/11/14 08:46:08;;;;;;;74.72;33.35;;;;;;;5.01;100.00;101357.38;4955746;28;20034;-76
2022/11/14 08:48:33;;;;;;;75.95;30.63;;;;;;;4.98;100.00;101361.63;4956485;28;20042;-76
2022/11/14 08:51:05;;;;;;;67.07;29.10;;;;;;;4.89;100.00;101360.81;4953747;28;20030;-76
2022/11/14 08:53:32;;;;;;;67.72;29.77;;;;;;;5.03;100.00;101355.09;4955057;28;20434;-75
2022/11/14 08:55:57;;;;;;;73.43;32.78;;;;;;;5.01;100.00;101358.19;4951227;28;20038;-76
2022/11/14 08:58:22;;;;;;;66.07;29.83;;;;;;;5.03;100.00;101363.44;4952382;28;20034;-75
2022/11/14 09:00:48;;;;;;;68.47;29.83;;;;;;;5.05;100.00;101364.72;4944000;28;20038;-75
2022/11/14 09:03:14;;;;;;;59.90;29.35;;;;;;;5.05;100.00;101356.41;4949159;28;20423;-75
2022/11/14 09:05:40;;;;;;;65.90;28.67;;;;;;;5.21;100.00;101350.34;4957056;28;20146;-76
2022/11/14 09:08:06;;;;;;;65.47;31.90;;;;;;;5.33;100.00;101353.22;4962132;28;20038;-75
2022/11/14 09:10:32;;;;;;;72.40;30.42;;;;;;;5.30;100.00;101353.91;4952378;28;20027;-75
2022/11/14 09:12:59;;;;;;;67.65;28.48;;;;;;;5.32;100.00;101354.41;4957956;28;20709;-75
2022/11/14 09:15:25;;;;;;;71.10;31.73;;;;;;;5.25;100.00;101351.31;4941267;28;20142;-76
2022/11/14 09:17:54;;;;;;;63.22;28.65;;;;;;;5.29;100.00;101352.25;4958157;28;20031;-75
2022/11/14 09:20:21;;;;;;;67.45;31.35;;;;;;;5.44;100.00;101348.13;4949844;28;20037;-76
2022/11/14 09:22:46;;;;;;;58.05;27.83;;;;;;;5.33;100.00;101344.09;4956282;28;20042;-76
2022/11/14 09:25:12;;;;;;;58.55;27.25;;;;;;;5.37;100.00;101340.31;4935051;28;20391;-76
2022/11/14 09:27:37;;;;;;;53.17;27.13;;;;;;;5.46;100.00;101340.28;4961207;28;20038;-76
2022/11/14 09:30:03;;;;;;;57.13;26.45;;;;;;;5.47;100.00;101339.97;4955117;28;20052;-75
2022/11/14 09:32:29;;;;;;;59.67;29.73;;;;;;;5.37;100.00;101329.22;4953781;28;20130;-75
2022/11/14 09:34:54;;;;;;;56.28;26.83;;;;;;;5.42;100.00;101334.63;4956430;28;20106;-75
2022/11/14 09:37:19;;;;;;;59.85;29.40;;;;;;;5.52;100.00;101327.06;4957742;28;20104;-76
2022/11/14 09:39:45;;;;;;;65.60;29.20;;;;;;;5.54;100.00;101327.53;4955775;28;20039;-77
2022/11/14 09:42:13;;;;;;;57.45;27.48;;;;;;;5.49;100.00;101339.66;4936642;28;20390;-76
2022/11/14 09:44:54;;;;;;;63.45;29.25;;;;;;;5.47;100.00;101339.97;4939105;28;20073;-75
2022/11/14 09:47:44;;;;;;;64.25;29.95;;;;;;;5.55;100.00;101331.97;4957513;28;20031;-76
2022/11/14 09:50:17;;;;;;;62.38;27.80;;;;;;;5.60;100.00;101335.34;4926860;28;20045;-74
2022/11/14 09:52:50;;;;;;;60.75;27.92;;;;;;;5.66;100.00;101344.31;4955692;28;20446;-75
2022/11/14 09:55:19;;;;;;;57.85;26.80;;;;;;;5.77;100.00;101345.56;4951178;28;20475;-76
2022/11/14 09:57:45;;;;;;;53.47;26.48;;;;;;;5.80;100.00;101333.81;4950694;28;20038;-76
2022/11/14 10:00:16;;;;;;;58.47;27.05;;;;;;;5.87;100.00;101336.84;4942357;28;20038;-76
2022/11/14 10:02:53;;;;;;;55.80;27.02;;;;;;;5.88;100.00;101332.94;4938158;28;20031;-76
2022/11/14 10:05:40;;;;;;;57.85;27.50;;;;;;;5.80;100.00;101333.81;4951933;28;20027;-75
2022/11/14 10:08:11;;;;;;;65.00;29.55;;;;;;;5.82;100.00;101325.94;4958454;28;20089;-75
2022/11/14 10:10:52;;;;;;;57.40;26.05;;;;;;;5.81;100.00;101318.75;4949806;28;20077;-77
2022/11/14 10:13:35;;;;;;;52.78;25.77;;;;;;;5.93;100.00;101309.72;4946227;28;20518;-76
2022/11/14 10:16:09;;;;;;;56.88;25.05;;;;;;;5.99;100.00;101313.97;4938574;28;20024;-76
2022/11/14 10:18:56;;;;;;;53.60;25.92;;;;;;;6.11;100.00;101293.75;4936127;28;20067;-75
2022/11/14 10:21:27;;;;;;;55.80;25.10;;;;;;;6.08;100.00;101313.91;4952160;28;20027;-76
2022/11/14 10:24:08;;;;;;;54.97;25.52;;;;;;;6.07;100.00;101298.34;4934370;28;20040;-75
2022/11/14 10:26:41;;;;;;;57.92;27.40;;;;;;;6.14;100.00;101308.97;4934851;28;20453;-76
2022/11/14 10:29:22;;;;;;;50.40;24.52;;;;;;;6.17;100.00;101303.53;4933976;28;20482;-76
2022/11/14 10:31:59;;;;;;;54.33;25.48;;;;;;;6.13;100.00;101299.78;4934174;28;20439;-76
2022/11/14 10:34:37;;;;;;;55.65;27.27;;;;;;;6.23;100.00;101304.16;4939550;28;20735;-75
2022/11/14 10:37:14;;;;;;;54.47;27.35;;;;;;;6.24;100.00;101292.69;4937909;28;20038;-75
2022/11/14 10:39:47;;;;;;;48.10;24.52;;;;;;;6.26;100.00;101290.41;4934375;28;20090;-76
2022/11/14 10:42:16;;;;;;;52.00;25.80;;;;;;;6.33;100.00;101283.47;4933744;28;20035;-77
2022/11/14 10:44:50;;;;;;;49.20;24.20;;;;;;;6.35;100.00;101279.22;4940353;28;20070;-76
2022/11/14 10:47:19;;;;;;;57.33;25.75;;;;;;;6.42;100.00;101270.31;4938143;28;20071;-75
2022/11/14 10:49:45;;;;;;;53.58;25.42;;;;;;;6.45;100.00;101267.69;4930027;28;20155;-75
2022/11/14 10:52:18;;;;;;;58.00;26.13;;;;;;;6.52;100.00;101264.34;4930502;28;20110;-76
2022/11/14 10:54:55;;;;;;;44.60;23.25;;;;;;;6.55;100.00;101260.88;4934595;28;20024;-76
2022/11/14 10:57:21;;;;;;;45.85;25.77;;;;;;;6.63;100.00;101254.41;4928604;28;20087;-77
2022/11/14 10:59:47;;;;;;;50.08;26.67;;;;;;;6.62;100.00;101252.81;4933353;28;20043;-76
2022/11/14 11:02:14;;;;;;;46.40;26.45;;;;;;;6.69;100.00;101232.78;4930282;28;20102;-76
2022/11/14 11:04:41;;;;;;;48.58;23.92;;;;;;;6.75;100.00;101233.38;4933502;28;20035;-76
2022/11/14 11:07:07;;;;;;;50.50;25.08;;;;;;;6.80;100.00;101224.81;4932855;28;20475;-76
2022/11/14 11:12:21;;;;;;;53.83;25.25;;;;;;;6.94;100.00;101214.16;4939862;28;20062;-76
2022/11/14 11:15:18;;;;;;;43.92;20.90;;;;;;;7.00;100.00;101212.78;4951980;28;20030;-75
2022/11/14 11:17:54;;;;;;;45.55;22.80;;;;;;;7.06;100.00;101211.41;4944393;28;20063;-76
2022/11/14 11:20:22;;;;;;;44.08;23.05;;;;;;;7.13;100.00;101208.84;4954563;28;20027;-77
2022/11/14 11:22:47;;;;;;;41.45;21.92;;;;;;;7.19;100.00;101215.03;4959360;28;20059;-77
2022/11/14 11:25:26;;;;;;;44.10;23.38;;;;;;;7.19;100.00;101203.06;4947366;28;20126;-75
2022/11/14 11:28:06;;;;;;;40.70;22.17;;;;;;;7.13;100.00;101206.06;4954637;28;20471;-77
2022/11/14 11:30:32;;;;;;;43.13;22.25;;;;;;;7.30;100.00;101205.03;4952740;28;20038;-76
2022/11/14 11:33:16;;;;;;;52.75;23.48;;;;;;;7.43;100.00;101186.34;4958983;28;20054;-75
2022/11/14 11:35:43;;;;;;;46.47;23.85;;;;;;;7.42;100.00;101184.75;4956371;28;20545;-76
2022/11/14 11:38:10;;;;;;;46.33;22.67;;;;;;;7.35;100.00;101178.94;4956039;28;20034;-76
2022/11/14 11:40:36;;;;;;;44.85;24.40;;;;;;;7.45;99.85;101184.03;4951736;28;20093;-77
2022/11/14 11:43:08;;;;;;;40.75;20.15;;;;;;;7.45;99.30;101180.44;4952532;28;20039;-76
2022/11/14 11:45:33;;;;;;;41.13;21.92;;;;;;;7.42;99.48;101193.09;4949734;28;20038;-77
2022/11/14 11:48:36;;;;;;;43.88;21.42;;;;;;;7.47;98.04;101184.50;4954600;28;20053;-77
2022/11/14 11:51:03;;;;;;;37.75;19.35;;;;;;;7.56;97.67;101183.56;4946350;28;20505;-78
2022/11/14 11:53:42;;;;;;;51.63;23.90;;;;;;;7.60;97.96;101174.16;4949628;28;20523;-76
2022/11/14 11:56:24;;;;;;;39.30;21.67;;;;;;;7.54;97.81;101184.72;4949668;28;20295;-77
2022/11/14 11:58:53;;;;;;;44.28;21.85;;;;;;;7.56;97.35;101183.56;4953860;28;20490;-77
2022/11/14 12:01:19;;;;;;;43.80;21.33;;;;;;;7.57;97.43;101168.47;4955743;28;20490;-77
2022/11/14 12:03:54;;;;;;;40.38;22.50;;;;;;;7.58;96.84;101178.44;4949725;28;20029;-76
2022/11/14 12:06:34;;;;;;;47.28;21.77;;;;;;;7.60;96.68;101170.56;4954421;28;20518;-76
2022/11/14 12:09:09;;;;;;;44.15;21.45;;;;;;;7.61;96.78;101163.81;4958204;28;21338;-76
2022/11/14 12:11:39;;;;;;;44.38;21.67;;;;;;;7.65;97.13;101175.88;4961279;28;20041;-77
2022/11/14 12:14:29;;;;;;;43.90;22.33;;;;;;;7.63;96.36;101172.63;4956796;28;20476;-76
2022/11/14 12:16:57;;;;;;;48.08;25.02;;;;;;;7.71;96.06;101171.69;4957359;28;20046;-76
2022/11/14 12:19:34;;;;;;;41.45;20.98;;;;;;;7.65;97.13;101168.34;4954373;28;20039;-76
2022/11/14 12:22:13;;;;;;;40.00;21.10;;;;;;;7.68;96.76;101162.06;4942489;28;20056;-77
2022/11/14 12:25:07;;;;;;;39.92;21.27;;;;;;;7.73;96.81;101155.44;4952265;28;20578;-77
2022/11/14 12:27:53;;;;;;;40.47;21.83;;;;;;;7.73;97.32;101155.44;4947549;28;20521;-77
2022/11/14 12:30:23;;;;;;;47.75;23.38;;;;;;;7.72;97.10;101151.03;4941200;28;20030;-77
2022/11/14 12:32:53;;;;;;;39.58;20.63;;;;;;;7.79;96.85;101142.88;4931448;28;20034;-76
2022/11/14 12:35:28;;;;;;;40.38;22.08;;;;;;;7.77;96.78;101139.63;4956407;28;20688;-76
2022/11/14 12:37:57;;;;;;;41.95;22.83;;;;;;;7.85;97.53;101141.47;4954888;28;20065;-76
2022/11/14 12:40:25;;;;;;;48.45;24.50;;;;;;;7.86;97.76;101148.69;4952532;28;20037;-76
2022/11/14 12:42:50;;;;;;;41.47;23.13;;;;;;;7.83;96.65;101138.22;4951964;28;20050;-75
2022/11/14 12:45:34;;;;;;;40.58;22.13;;;;;;;7.82;96.59;101142.19;4955795;28;20482;-76
2022/11/14 12:48:24;;;;;;;42.47;21.17;;;;;;;7.94;96.12;101136.56;4947556;28;20041;-76
2022/11/14 12:50:51;;;;;;;45.70;22.48;;;;;;;8.06;96.81;101140.47;4934132;28;20038;-76
2022/11/14 12:53:34;;;;;;;39.95;20.50;;;;;;;8.03;96.47;101127.25;4945886;28;20062;-76
2022/11/14 12:56:09;;;;;;;;;;;;;;;8.06;95.43;101132.91;4948748;28;20364;-76
2022/11/14 12:59:07;;;;;;;47.80;22.50;;;;;;;8.06;94.83;101134.91;4945768;28;19914;-76
2022/11/14 13:01:43;;;;;;;43.88;22.50;;;;;;;8.12;94.66;101130.69;4946942;28;20030;-76
2022/11/14 13:04:14;;;;;;;34.95;20.15;;;;;;;8.11;94.29;101126.28;4949431;28;20471;-76
2022/11/14 13:07:03;;;;;;;40.80;23.55;;;;;;;8.08;95.68;101121.41;4932006;28;20752;-76
2022/11/14 13:09:32;;;;;;;36.38;20.83;;;;;;;8.19;93.25;101116.94;4927769;28;20424;-76
2022/11/14 13:23:25;;;;;;;37.83;21.00;;;;;;;8.25;91.37;101079.28;4943597;28;20077;-78
2022/11/14 13:26:19;;;;;;;38.08;22.38;;;;;;;8.29;90.61;101082.16;4928352;28;20045;-76
2022/11/14 13:28:48;;;;;;;35.08;19.90;;;;;;;8.24;90.93;101074.88;4924129;28;20047;-77
2022/11/14 13:31:13;;;;;;;37.00;20.42;;;;;;;8.21;91.84;101091.50;4943646;28;20035;-78
2022/11/14 13:34:00;;;;;;;39.58;21.52;;;;;;;8.29;91.73;101094.13;4936214;28;20035;-77
2022/11/14 13:36:39;;;;;;;38.78;20.00;;;;;;;8.21;90.67;101092.31;4946266;28;20047;-76
2022/11/14 13:39:30;;;;;;;35.33;20.30;;;;;;;8.18;91.59;101103.34;4931669;28;20019;-76
2022/11/14 13:42:08;;;;;;;41.55;20.38;;;;;;;8.26;91.37;101105.19;4935221;28;20042;-75
2022/11/14 13:44:36;;;;;;;38.83;20.77;;;;;;;8.28;91.41;101111.22;4942069;28;20031;-76
2022/11/14 13:47:25;;;;;;;38.08;20.65;;;;;;;8.26;92.22;101099.59;4942381;28;20051;-75
2022/11/14 13:50:09;;;;;;;38.63;21.27;;;;;;;8.23;92.15;101087.19;4939368;28;20038;-76
2022/11/14 13:52:41;;;;;;;35.85;20.17;;;;;;;8.29;92.53;101085.75;4942043;28;20036;-76
2022/11/14 13:55:06;;;;;;;40.63;21.80;;;;;;;8.23;92.84;101078.81;4951007;28;20035;-76
2022/11/14 13:57:48;;;;;;;37.40;21.13;;;;;;;8.29;92.10;101080.19;4952407;28;20038;-78
2022/11/14 14:00:15;;;;;;;34.50;19.50;;;;;;;8.21;92.64;101085.94;4961487;28;20042;-77
2022/11/14 14:02:52;;;;;;;36.85;21.80;;;;;;;8.15;92.43;101082.56;4942592;28;20394;-77
2022/11/14 14:05:31;;;;;;;31.75;19.63;;;;;;;8.09;93.60;101090.38;4964524;28;20430;-78
2022/11/14 14:08:10;;;;;;;39.30;21.77;;;;;;;8.08;93.46;101087.97;4945021;28;20237;-78
2022/11/14 14:10:58;;;;;;;35.60;22.10;;;;;;;8.20;95.18;101085.13;4953470;28;20047;-77
2022/11/14 14:13:50;;;;;;;41.25;22.40;;;;;;;8.31;93.46;101086.22;4952194;28;20062;-76
2022/11/14 14:16:29;;;;;;;38.38;21.17;;;;;;;8.13;94.40;101079.34;4942905;28;20035;-77
2022/11/14 14:19:12;;;;;;;41.85;22.85;;;;;;;8.05;94.37;101083.09;4954243;28;20414;-77
2022/11/14 14:21:52;;;;;;;42.35;21.85;;;;;;;8.04;94.33;101085.06;4953713;28;20023;-77
2022/11/14 14:24:36;;;;;;;42.22;22.67;;;;;;;8.03;94.33;101079.84;4950702;28;20023;-77
2022/11/14 14:27:19;;;;;;;36.58;21.17;;;;;;;8.05;94.75;101072.78;4949773;28;20030;-77
2022/11/14 14:29:47;;;;;;;38.15;22.35;;;;;;;8.03;94.87;101079.84;4947549;28;20027;-76
2022/11/14 14:32:15;;;;;;;39.20;22.33;;;;;;;8.07;94.25;101075.19;4951731;28;20060;-77
2022/11/14 14:34:41;;;;;;;44.10;24.52;;;;;;;8.08;94.07;101072.03;4956300;28;20455;-77
2022/11/14 14:37:22;;;;;;;37.55;22.30;;;;;;;8.02;94.10;101062.31;4947365;28;20106;-77
2022/11/14 14:40:07;;;;;;;45.45;23.98;;;;;;;8.04;94.13;101070.34;4931242;28;20034;-76
2022/11/14 14:42:39;;;;;;;35.70;21.58;;;;;;;7.98;94.53;101068.97;4953183;28;20065;-77
2022/11/14 14:45:14;;;;;;;44.38;23.60;;;;;;;7.99;93.75;101071.41;4957440;28;20101;-77
2022/11/14 14:47:41;;;;;;;41.78;24.95;;;;;;;8.01;94.03;101073.81;4948015;28;20031;-77
2022/11/14 14:50:16;;;;;;;43.67;23.67;;;;;;;7.93;93.99;101075.59;4939454;28;20041;-76
2022/11/14 14:52:41;;;;;;;39.88;21.92;;;;;;;7.93;93.30;101070.84;4951187;28;20034;-77
2022/11/14 14:55:19;;;;;;;38.72;20.65;;;;;;;7.91;93.70;101061.22;4957539;28;20023;-77
2022/11/14 14:57:44;;;;;;;31.15;20.63;;;;;;;7.88;93.60;101061.91;4954423;28;20526;-77
2022/11/14 15:00:28;;;;;;;38.38;20.95;;;;;;;7.87;94.88;101060.31;4940470;28;20131;-76
2022/11/14 15:02:55;;;;;;;31.83;19.98;;;;;;;7.93;94.63;101054.13;4942224;28;20023;-77
2022/11/14 15:05:26;;;;;;;31.98;20.48;;;;;;;7.91;94.47;101056.44;4949147;28;20093;-75
2022/11/14 15:07:57;;;;;;;33.70;20.50;;;;;;;7.91;94.61;101062.03;4961326;28;20038;-76
2022/11/14 15:10:28;;;;;;;35.83;20.77;;;;;;;7.93;95.23;101056.09;4948007;28;20557;-79
2022/11/14 15:12:55;;;;;;;29.83;18.83;;;;;;;7.82;95.69;101053.00;4951766;28;20533;-76
2022/11/14 15:15:21;;;;;;;29.85;19.25;;;;;;;7.87;95.41;101055.53;4941249;28;20483;-75
2022/11/14 15:17:52;;;;;;;30.00;17.75;;;;;;;7.87;95.00;101060.31;4947883;28;20082;-76
2022/11/14 15:20:24;;;;;;;31.35;20.08;;;;;;;7.84;95.85;101047.91;4942939;28;20031;-76
2022/11/14 15:23:03;;;;;;;30.77;19.70;;;;;;;7.94;95.89;101050.16;4955204;28;20031;-76
2022/11/14 15:25:29;;;;;;;27.13;17.27;;;;;;;7.93;96.08;101051.31;4933397;28;20076;-76
2022/11/14 15:27:57;;;;;;;29.40;18.23;;;;;;;7.94;95.69;101041.78;4932284;28;20038;-76
2022/11/14 15:30:27;;;;;;;27.13;18.17;;;;;;;7.87;96.64;101038.81;4952969;28;20034;-76
2022/11/14 15:33:02;;;;;;;29.73;19.77;;;;;;;7.85;97.12;101035.56;4947070;28;20034;-76
2022/11/14 15:35:36;;;;;;;30.33;19.23;;;;;;;7.76;97.31;101032.13;4932885;28;20502;-76
2022/11/14 15:38:10;;;;;;;32.08;17.35;;;;;;;7.76;97.38;101031.31;4949214;28;20339;-75
2022/11/14 15:40:38;;;;;;;27.08;16.90;;;;;;;7.86;97.29;101037.19;4949825;28;20061;-75
2022/11/14 15:43:34;;;;;;;26.02;17.35;;;;;;;7.71;98.17;101032.38;4952071;28;20038;-76
2022/11/14 15:45:59;;;;;;;26.20;15.85;;;;;;;7.84;97.57;101033.97;4942637;28;20041;-76
2022/11/14 15:48:24;;;;;;;29.30;17.55;;;;;;;8.01;97.03;101043.16;4935824;28;20031;-76
2022/11/14 15:50:50;;;;;;;26.98;16.55;;;;;;;8.05;97.16;101046.84;4925908;28;20153;-75
2022/11/14 15:53:22;;;;;;;28.00;16.10;;;;;;;8.07;96.00;101044.50;4945320;28;20035;-76
2022/11/14 15:55:48;;;;;;;27.50;17.20;;;;;;;8.00;97.50;101042.34;4947165;28;20026;-76
2022/11/14 15:58:13;;;;;;;23.60;15.95;;;;;;;7.92;97.27;101040.53;4937924;28;20077;-77
2022/11/14 16:00:45;;;;;;;27.77;16.27;;;;;;;8.06;96.42;101045.69;4929883;28;20042;-76
2022/11/14 16:03:16;;;;;;;24.90;15.40;;;;;;;8.10;96.99;101038.25;4940605;28;20034;-76
2022/11/14 16:05:41;;;;;;;27.10;16.98;;;;;;;8.34;100.00;101038.06;4939829;28;20154;-76
2022/11/14 16:08:09;;;;;;;22.58;13.77;;;;;;;8.62;94.25;101051.19;4928245;28;20039;-78
2022/11/14 16:10:35;;;;;;;30.73;20.27;;;;;;;8.21;96.08;101044.91;4946852;28;20483;-75
2022/11/14 16:13:00;;;;;;;28.77;17.50;;;;;;;8.15;96.76;101037.97;4945193;28;20150;-75
2022/11/14 16:15:26;;;;;;;27.38;16.92;;;;;;;8.06;97.11;101046.50;4942612;28;20031;-76
2022/11/14 16:17:51;;;;;;;26.35;16.35;;;;;;;8.11;96.51;101042.63;4931511;28;20539;-76
2022/11/14 16:20:22;;;;;;;30.13;20.30;;;;;;;8.07;97.35;101036.94;4945968;28;20106;-76
2022/11/14 16:22:52;;;;;;;28.58;17.92;;;;;;;8.14;97.65;101031.59;4932934;28;20047;-75
2022/11/14 16:25:28;;;;;;;27.23;18.42;;;;;;;8.06;97.56;101029.78;4947100;28;20033;-76
2022/11/14 16:27:54;;;;;;;25.48;17.40;;;;;;;8.14;97.45;101020.44;4939959;28;20039;-75
2022/11/14 16:30:21;;;;;;;29.20;17.83;;;;;;;8.17;96.59;101024.47;4917072;28;20680;-77
2022/11/14 16:32:48;;;;;;;29.70;17.77;;;;;;;7.89;98.08;101019.75;4952497;28;20497;-77
2022/11/14 16:35:22;;;;;;;29.58;16.08;;;;;;;8.05;97.67;101021.75;4948714;28;20415;-76
2022/11/14 16:37:48;;;;;;;39.50;24.75;;;;;;;8.09;97.59;101023.47;4951564;28;20067;-76
2022/11/14 16:40:18;;;;;;;30.20;19.33;;;;;;;8.09;98.09;101022.66;4941869;28;20066;-76
2022/11/14 16:42:44;;;;;;;36.85;22.05;;;;;;;8.06;98.00;101020.59;4944109;28;20426;-75
2022/11/14 16:45:10;;;;;;;27.55;17.73;;;;;;;8.18;98.21;101020.53;4939637;28;20313;-76
2022/11/14 16:47:35;;;;;;;26.80;17.45;;;;;;;8.20;97.91;101022.94;4929154;28;20038;-77
2022/11/14 16:50:01;;;;;;;23.70;15.70;;;;;;;8.20;97.96;101018.19;4929880;28;20446;-76
2022/11/14 16:52:26;;;;;;;24.83;15.60;;;;;;;8.07;98.19;101025.00;4948454;28;20034;-76
2022/11/14 16:54:51;;;;;;;28.40;18.67;;;;;;;8.07;98.72;101019.41;4940488;28;20126;-76
2022/11/14 16:57:17;;;;;;;26.40;17.73;;;;;;;7.99;98.72;101020.41;4957827;28;20031;-76
2022/11/14 16:59:42;;;;;;;24.45;16.77;;;;;;;7.96;98.72;101007.19;4956856;28;20142;-76
2022/11/14 17:02:14;;;;;;;27.25;17.88;;;;;;;8.06;98.88;101004.69;4952102;28;20465;-76
2022/11/14 17:04:41;;;;;;;29.13;15.90;;;;;;;7.93;99.27;101012.31;4955575;28;22277;-76
2022/11/14 17:07:07;;;;;;;32.78;16.88;;;;;;;8.01;99.33;101015.28;4928644;28;20020;-76
2022/11/14 17:09:32;;;;;;;24.38;15.90;;;;;;;8.04;98.66;101009.00;4961941;28;20066;-76
2022/11/14 17:11:57;;;;;;;26.40;17.63;;;;;;;8.14;98.89;101008.47;4955521;28;20466;-76
2022/11/14 17:14:23;;;;;;;26.73;16.35;;;;;;;8.13;98.31;101009.63;4961359;28;20042;-76
2022/11/14 17:16:48;;;;;;;25.98;16.25;;;;;;;8.22;98.86;101010.28;4943844;28;20057;-76
2022/11/14 17:19:13;;;;;;;26.25;17.10;;;;;;;8.17;99.18;100999.38;4939127;28;20042;-76
2022/11/14 17:21:38;;;;;;;24.90;16.52;;;;;;;8.10;99.03;101002.00;4949561;28;20039;-76
2022/11/14 17:24:04;;;;;;;40.50;26.92;;;;;;;8.43;99.79;100998.06;4949375;28;20042;-77
2022/11/14 17:26:30;;;;;;;34.08;21.10;;;;;;;8.37;97.21;101005.06;4955636;28;20041;-78
2022/11/14 17:28:55;;;;;;;28.20;18.13;;;;;;;8.25;97.55;100994.81;4964907;28;20030;-78
2022/11/14 17:31:21;;;;;;;29.05;18.30;;;;;;;8.24;98.17;100995.97;4958853;28;20109;-77
2022/11/14 17:33:52;;;;;;;27.67;19.33;;;;;;;8.23;98.74;100995.16;4956782;28;20030;-78
2022/11/14 17:36:18;;;;;;;25.95;16.38;;;;;;;8.19;98.01;100997.03;4951012;28;20715;-77
2022/11/14 17:38:43;;;;;;;27.45;16.55;;;;;;;8.18;98.57;100986.25;4937123;28;20027;-78
2022/11/14 17:41:08;;;;;;;25.52;16.20;;;;;;;8.11;98.81;100981.31;4940265;28;20084;-78
2022/11/14 17:43:35;;;;;;;29.15;18.92;;;;;;;8.10;99.67;100983.28;4939107;28;20026;-78
2022/11/14 17:46:01;;;;;;;29.55;17.10;;;;;;;8.11;99.48;100978.50;4954113;28;20110;-78
2022/11/14 17:48:26;;;;;;;31.17;17.08;;;;;;;8.09;99.24;100975.28;4935039;28;23117;-78